Maran Castor — SXLH — position and weather

sailwx.info

Track history (hours):
 
Tides and Currents Weather Stations Pressure Air Temp Water Temp Dewpoint Dewpoint Depression Visibility Wind Speed Wind Dir Waves Ship Positions

Maran Castor

Last reported at 2014-Jul-17 14:09 UTC. Time now 2014-Jul-22 15:24 UTC.
Position N 22°26' E 119°49'.

Length 332 m; draft 11.6 m.

Type: Tanker. MMSI: 239808000.

Date/timePositionNaut miles runAvg speedWind from/ knotsBaromVisibWave heightAir tempDewpointWater temp
2014-Jul-17 14:09N 22°26' E 119°49'813.1
2014-Jul-17 13:33N 22°33' E 119°52'1010.2
2014-Jul-17 12:32N 22°43' E 119°54'1111.0
2014-Jul-17 11:33N 22°54' E 119°54'  
2014-Jul-11 14:14N 35°48' E 125°29'811.5
2014-Jul-11 13:33N 35°56' E 125°33'1713.7
2014-Jul-11 12:18N 36°11' E 125°41'1214.4
2014-Jul-11 11:30N 36°22' E 125°47'1515.1
2014-Jul-11 10:32N 36°35' E 125°53'  
Track history (hours):
 
Tides and Currents Weather Stations Pressure Air Temp Water Temp Dewpoint Dewpoint Depression Visibility Wind Speed Wind Dir Waves Ship Positions

Maran Castor

Last reported at 2014-Jul-17 14:09 UTC. Time now 2014-Jul-22 15:24 UTC.
Position N 22°26' E 119°49'.

Length 332 m; draft 11.6 m.

Type: Tanker. MMSI: 239808000.

Date/timePositionNaut miles runAvg speedWind from/ knotsBaromVisibWave heightAir tempDewpointWater temp
2014-Jul-17 14:09N 22°26' E 119°49'813.1
2014-Jul-17 13:33N 22°33' E 119°52'1010.2
2014-Jul-17 12:32N 22°43' E 119°54'1111.0
2014-Jul-17 11:33N 22°54' E 119°54'  
2014-Jul-11 14:14N 35°48' E 125°29'811.5
2014-Jul-11 13:33N 35°56' E 125°33'1713.7
2014-Jul-11 12:18N 36°11' E 125°41'1214.4
2014-Jul-11 11:30N 36°22' E 125°47'1515.1
2014-Jul-11 10:32N 36°35' E 125°53'  

Dump ship's entire track history